Time;durP1;ratioP1;P1;durP2;ratioP2;P2;SDS_P1;SDS_P2;PMS_P1;PMS_P2;Temp;Humidity;BMP_temperature;BMP_pressure;BME280_temperature;BME280_humidity;BME280_pressure;Samples;Min_cycle;Max_cycle;Signal;HPM_P1;HPM_P2
2021/12/09 00:01:33;;;;;;;1.40;0.87;;;22.20;68.90;;;;;;4171529;28;20157;-51
2021/12/09 00:03:40;;;;;;;2.40;0.68;;;22.30;70.00;;;;;;4168909;28;20345;-56
2021/12/09 00:05:44;;;;;;;0.70;0.40;;;22.30;69.30;;;;;;4169193;28;21045;-56
2021/12/09 00:07:50;;;;;;;0.60;0.60;;;22.30;69.30;;;;;;4167299;28;20199;-56
2021/12/09 00:09:52;;;;;;;0.88;0.57;;;22.30;69.20;;;;;;4168944;28;20423;-53
2021/12/09 00:11:55;;;;;;;3.50;0.40;;;22.40;69.20;;;;;;4168120;28;20052;-52
2021/12/09 00:13:58;;;;;;;0.57;0.57;;;22.40;69.20;;;;;;4167635;28;20060;-53
2021/12/09 00:16:00;;;;;;;1.65;0.70;;;22.50;69.20;;;;;;4168962;28;20727;-54
2021/12/09 00:18:03;;;;;;;1.02;0.90;;;22.50;69.20;;;;;;4168505;28;20217;-54
2021/12/09 00:20:06;;;;;;;1.67;0.70;;;22.50;69.20;;;;;;4166696;28;20052;-52
2021/12/09 00:22:12;;;;;;;0.50;0.50;;;22.60;69.10;;;;;;4168753;28;20600;-50
2021/12/09 00:24:14;;;;;;;2.35;0.70;;;22.60;68.90;;;;;;4167984;28;20058;-54
2021/12/09 00:26:16;;;;;;;0.93;0.60;;;22.70;69.00;;;;;;4167298;28;20052;-49
2021/12/09 00:28:18;;;;;;;0.98;0.47;;;22.70;68.80;;;;;;4168091;28;20048;-52
2021/12/09 00:30:21;;;;;;;0.65;0.55;;;22.70;68.70;;;;;;4168049;28;20236;-51
2021/12/09 00:32:23;;;;;;;3.75;0.47;;;22.80;68.70;;;;;;4167636;28;20055;-54
2021/12/09 00:34:31;;;;;;;0.90;0.60;;;22.80;68.70;;;;;;4167384;28;20052;-52
2021/12/09 00:36:41;;;;;;;0.55;0.38;;;22.90;68.70;;;;;;4169624;28;20114;-51
2021/12/09 00:38:44;;;;;;;0.50;0.50;;;22.90;68.70;;;;;;4168196;28;20141;-53
2021/12/09 00:40:47;;;;;;;0.52;0.40;;;22.90;68.60;;;;;;4169145;28;20059;-53
2021/12/09 00:42:49;;;;;;;;;;;23.00;68.60;;;;;;4168144;28;20172;-54
2021/12/09 00:44:53;;;;;;;0.65;0.40;;;23.00;68.50;;;;;;4167630;28;19928;-55
2021/12/09 00:46:55;;;;;;;3.45;1.00;;;23.00;68.60;;;;;;4168618;28;20051;-53
2021/12/09 00:48:58;;;;;;;0.40;0.40;;;23.10;68.40;;;;;;4167315;28;20140;-52
2021/12/09 00:51:01;;;;;;;1.43;0.40;;;23.10;68.40;;;;;;4168131;28;20727;-52
2021/12/09 00:53:03;;;;;;;1.85;0.65;;;23.20;68.50;;;;;;4167878;28;20097;-52
2021/12/09 00:55:08;;;;;;;0.57;0.53;;;23.20;68.30;;;;;;4168050;28;20055;-50
2021/12/09 00:57:11;;;;;;;1.85;0.73;;;23.20;67.80;;;;;;4167527;28;20570;-59
2021/12/09 00:59:13;;;;;;;;;;;23.20;67.70;;;;;;4169390;28;21365;-50
2021/12/09 01:02:13;;;;;;;1.80;0.82;;;23.20;67.20;;;;;;4180526;27;22139;-48
2021/12/09 01:04:15;;;;;;;2.95;0.77;;;23.20;67.80;;;;;;4164184;28;20064;-51
2021/12/09 01:06:17;;;;;;;2.57;0.80;;;23.20;67.80;;;;;;4169403;28;20134;-51
2021/12/09 01:08:19;;;;;;;7.03;1.20;;;23.30;67.90;;;;;;4181742;28;20885;-51
2021/12/09 01:10:22;;;;;;;1.95;1.00;;;23.30;67.80;;;;;;4181269;28;20065;-51
2021/12/09 01:12:25;;;;;;;2.08;0.70;;;23.30;67.80;;;;;;4170467;28;20148;-52
2021/12/09 01:14:27;;;;;;;0.77;0.63;;;23.30;67.80;;;;;;4182647;28;20086;-47
2021/12/09 01:16:29;;;;;;;0.63;0.50;;;23.30;67.70;;;;;;4180564;28;20059;-49
2021/12/09 01:18:31;;;;;;;1.92;0.70;;;23.40;67.80;;;;;;4180449;28;20069;-52
2021/12/09 01:20:34;;;;;;;0.43;0.40;;;23.40;67.70;;;;;;4170732;28;21137;-45
2021/12/09 01:22:41;;;;;;;2.17;0.93;;;23.40;67.70;;;;;;4180441;28;20091;-53
2021/12/09 01:24:43;;;;;;;1.98;0.63;;;23.50;67.70;;;;;;4168876;28;20465;-50
2021/12/09 01:26:48;;;;;;;0.70;0.55;;;23.50;67.80;;;;;;4169582;28;20044;-53
2021/12/09 01:28:58;;;;;;;2.47;0.60;;;23.50;67.80;;;;;;4168464;28;20200;-49
2021/12/09 01:31:05;;;;;;;0.55;0.50;;;23.50;68.50;;;;;;4170930;28;20922;-48
2021/12/09 01:33:09;;;;;;;4.03;0.60;;;23.50;67.90;;;;;;4165750;28;20098;-57
2021/12/09 01:35:12;;;;;;;2.25;0.82;;;23.50;67.90;;;;;;4182064;28;20047;-52
2021/12/09 01:37:14;;;;;;;4.13;0.60;;;23.50;68.00;;;;;;4183125;28;20059;-52
2021/12/09 01:39:17;;;;;;;1.13;0.57;;;23.60;67.90;;;;;;4183677;28;20121;-52
2021/12/09 01:41:19;;;;;;;4.28;1.20;;;23.60;67.60;;;;;;4181205;28;20118;-52
2021/12/09 01:43:22;;;;;;;1.13;0.50;;;23.60;67.40;;;;;;4170943;28;20060;-52
2021/12/09 01:45:25;;;;;;;1.27;0.70;;;23.60;67.30;;;;;;4179675;28;20048;-52
2021/12/09 01:47:26;;;;;;;;;;;23.60;67.10;;;;;;4168339;28;20075;-49
2021/12/09 01:49:28;;;;;;;0.68;0.60;;;23.60;67.00;;;;;;4179043;28;20397;-53
2021/12/09 01:51:31;;;;;;;1.08;0.60;;;23.60;66.90;;;;;;4178874;28;20052;-52
2021/12/09 01:53:34;;;;;;;1.10;0.60;;;23.70;66.80;;;;;;4179357;28;20051;-54
2021/12/09 01:55:36;;;;;;;1.23;0.60;;;23.60;66.50;;;;;;4160969;28;20067;-53
2021/12/09 01:57:39;;;;;;;0.43;0.43;;;23.70;66.60;;;;;;4179527;28;20055;-56
2021/12/09 01:59:41;;;;;;;0.65;0.63;;;23.70;66.50;;;;;;4181636;28;20782;-54
2021/12/09 02:01:44;;;;;;;1.45;0.95;;;23.70;66.30;;;;;;4181861;28;20105;-55
2021/12/09 02:03:47;;;;;;;1.55;0.80;;;23.70;66.40;;;;;;4179762;28;20044;-50
2021/12/09 02:05:50;;;;;;;4.45;1.30;;;23.70;67.00;;;;;;4182855;28;20210;-56
2021/12/09 02:07:52;;;;;;;2.25;0.70;;;23.70;67.00;;;;;;4180013;28;20047;-55
2021/12/09 02:09:54;;;;;;;0.75;0.70;;;23.70;66.90;;;;;;4182927;28;20106;-54
2021/12/09 02:11:57;;;;;;;4.60;1.00;;;23.70;66.90;;;;;;4178959;28;20055;-56
2021/12/09 02:13:59;;;;;;;2.58;1.08;;;23.80;67.10;;;;;;4172748;28;20108;-57
2021/12/09 02:16:03;;;;;;;1.10;0.60;;;23.80;67.00;;;;;;4168563;28;20078;-49
2021/12/09 02:18:11;;;;;;;2.53;0.80;;;23.80;67.10;;;;;;4170792;28;20418;-53
2021/12/09 02:20:13;;;;;;;1.08;0.80;;;23.80;67.40;;;;;;4171546;28;20446;-52
2021/12/09 02:22:16;;;;;;;3.47;0.60;;;23.80;67.40;;;;;;4171420;28;20511;-48
2021/12/09 02:24:20;;;;;;;1.50;0.65;;;23.80;67.40;;;;;;4170209;28;20060;-51
2021/12/09 02:26:32;;;;;;;1.35;0.70;;;23.80;67.40;;;;;;4171791;28;20052;-56
2021/12/09 02:28:34;;;;;;;1.00;0.75;;;23.90;67.40;;;;;;4174404;28;20524;-55
2021/12/09 02:30:36;;;;;;;0.65;0.60;;;23.90;67.20;;;;;;4175462;28;20056;-53
2021/12/09 02:32:39;;;;;;;1.52;0.60;;;23.90;67.20;;;;;;4179558;28;20095;-50
2021/12/09 02:34:41;;;;;;;3.97;0.70;;;23.90;67.30;;;;;;4176811;28;20080;-54
2021/12/09 02:36:44;;;;;;;1.95;0.75;;;23.90;67.30;;;;;;4178673;28;20789;-51
2021/12/09 02:38:47;;;;;;;3.30;1.20;;;24.00;67.30;;;;;;4175946;28;20063;-52
2021/12/09 02:40:50;;;;;;;;;;;24.00;67.40;;;;;;4175061;28;20056;-54
2021/12/09 02:42:53;;;;;;;5.57;1.10;;;24.00;67.40;;;;;;4167358;28;19934;-51
2021/12/09 02:44:57;;;;;;;6.18;1.15;;;24.00;67.20;;;;;;4169641;28;20487;-54
2021/12/09 02:47:00;;;;;;;1.92;1.05;;;24.00;67.10;;;;;;4170010;28;20059;-54
2021/12/09 02:49:06;;;;;;;5.32;0.80;;;24.00;66.90;;;;;;4171023;28;20052;-53
2021/12/09 02:51:09;;;;;;;3.72;1.02;;;24.10;67.00;;;;;;4152265;28;20072;-52
2021/12/09 02:53:12;;;;;;;4.25;0.57;;;24.10;66.90;;;;;;4169399;28;20040;-48
2021/12/09 02:55:14;;;;;;;0.50;0.45;;;24.10;66.90;;;;;;4169603;28;20048;-52
2021/12/09 02:57:17;;;;;;;2.67;0.60;;;24.10;66.90;;;;;;4168666;28;20055;-49
2021/12/09 02:59:19;;;;;;;3.30;0.70;;;24.10;66.90;;;;;;4169125;28;20320;-55
2021/12/09 03:01:26;;;;;;;5.05;0.60;;;24.10;66.70;;;;;;4156223;28;21259;-53
2021/12/09 03:03:28;;;;;;;1.10;0.60;;;24.10;66.70;;;;;;4169757;28;20060;-52
2021/12/09 03:05:31;;;;;;;2.83;0.70;;;24.10;66.90;;;;;;4168896;28;20040;-45
2021/12/09 03:07:37;;;;;;;2.58;0.90;;;24.10;66.80;;;;;;4167176;28;20052;-49
2021/12/09 03:09:48;;;;;;;6.35;1.40;;;24.20;67.20;;;;;;4167282;28;20054;-48
2021/12/09 03:11:54;;;;;;;3.35;0.77;;;24.20;66.90;;;;;;4165479;28;21708;-48
2021/12/09 03:13:57;;;;;;;2.10;0.85;;;24.20;66.90;;;;;;4167422;28;20067;-49
2021/12/09 03:16:00;;;;;;;1.27;0.40;;;24.20;66.90;;;;;;4165195;28;20052;-53
2021/12/09 03:18:02;;;;;;;2.22;0.70;;;24.20;66.90;;;;;;4166306;28;20200;-53
2021/12/09 03:20:06;;;;;;;4.83;0.93;;;24.30;67.00;;;;;;4166918;28;20673;-51
2021/12/09 03:22:09;;;;;;;7.80;1.20;;;24.30;67.10;;;;;;4164673;28;20059;-46
2021/12/09 03:24:15;;;;;;;7.47;1.63;;;24.30;67.30;;;;;;4166391;28;20044;-52
2021/12/09 03:26:20;;;;;;;8.05;1.27;;;24.30;67.20;;;;;;4164748;28;20300;-47
2021/12/09 03:28:23;;;;;;;4.05;1.05;;;24.40;67.20;;;;;;4150474;28;20165;-48
2021/12/09 03:30:25;;;;;;;2.90;1.10;;;24.40;67.00;;;;;;4150011;28;20528;-48
2021/12/09 03:32:28;;;;;;;2.87;0.90;;;24.40;67.00;;;;;;4164704;28;21585;-51
2021/12/09 03:34:32;;;;;;;2.33;0.90;;;24.40;67.00;;;;;;4168216;28;20312;-50
2021/12/09 03:36:34;;;;;;;1.83;0.57;;;24.50;67.00;;;;;;4164468;28;20317;-44
2021/12/09 03:38:36;;;;;;;2.20;0.80;;;24.50;66.80;;;;;;4166945;28;20058;-47
2021/12/09 03:40:39;;;;;;;2.13;0.80;;;24.60;66.80;;;;;;4167061;28;20055;-50
2021/12/09 03:42:41;;;;;;;0.95;0.65;;;24.60;66.70;;;;;;4168226;28;20327;-51
2021/12/09 03:44:45;;;;;;;1.63;0.80;;;24.60;66.70;;;;;;4168328;28;20111;-49
2021/12/09 03:46:50;;;;;;;1.38;0.50;;;24.60;66.60;;;;;;4167566;28;20060;-47
2021/12/09 03:48:52;;;;;;;3.38;0.63;;;24.70;66.50;;;;;;4168575;28;20063;-51
2021/12/09 03:50:54;;;;;;;0.95;0.68;;;24.70;66.40;;;;;;4168129;28;20107;-50
2021/12/09 03:52:57;;;;;;;3.33;0.70;;;24.70;66.40;;;;;;4165242;28;20858;-48
2021/12/09 03:54:59;;;;;;;3.58;0.47;;;24.80;66.30;;;;;;4170260;28;20048;-50
2021/12/09 03:57:02;;;;;;;3.17;0.80;;;24.80;66.20;;;;;;4167078;28;20874;-51
2021/12/09 03:59:07;;;;;;;4.18;0.73;;;24.80;66.20;;;;;;4169955;28;20056;-51
2021/12/09 04:02:13;;;;;;;2.55;0.75;;;24.80;65.60;;;;;;4166186;27;21129;-53
2021/12/09 04:04:15;;;;;;;;;;;24.90;66.10;;;;;;4164933;28;20573;-47
2021/12/09 04:06:18;;;;;;;1.95;0.90;;;25.00;66.10;;;;;;4166930;28;19928;-50
2021/12/09 04:08:21;;;;;;;2.47;0.70;;;25.00;65.40;;;;;;4165725;28;20091;-47
2021/12/09 04:10:23;;;;;;;0.77;0.70;;;25.00;65.80;;;;;;4166111;28;20044;-49
2021/12/09 04:12:26;;;;;;;2.50;1.00;;;25.10;65.80;;;;;;4166660;28;20527;-49
2021/12/09 04:14:28;;;;;;;1.55;0.73;;;25.10;65.90;;;;;;4166048;28;20145;-45
2021/12/09 04:16:30;;;;;;;2.47;0.85;;;25.20;65.80;;;;;;4162892;28;20088;-45
2021/12/09 04:18:32;;;;;;;2.73;0.77;;;25.20;65.60;;;;;;4166403;28;20110;-50
2021/12/09 04:20:35;;;;;;;0.80;0.60;;;25.30;66.00;;;;;;4166666;28;20410;-44
2021/12/09 04:22:37;;;;;;;0.95;0.60;;;25.20;65.50;;;;;;4162417;28;20048;-47
2021/12/09 04:24:39;;;;;;;0.60;0.60;;;25.30;65.60;;;;;;4163556;28;20558;-46
2021/12/09 04:26:45;;;;;;;1.90;0.70;;;25.30;65.60;;;;;;4163854;28;20766;-48
2021/12/09 04:28:47;;;;;;;1.88;0.90;;;25.40;65.40;;;;;;4164421;28;20059;-49
2021/12/09 04:30:49;;;;;;;1.02;0.88;;;25.40;65.30;;;;;;4164222;28;20049;-52
2021/12/09 04:32:54;;;;;;;2.03;0.80;;;25.50;65.20;;;;;;4165081;28;20060;-49
2021/12/09 04:34:57;;;;;;;1.45;0.70;;;25.60;65.10;;;;;;4163584;28;20049;-52
2021/12/09 04:36:59;;;;;;;1.60;0.77;;;25.60;65.00;;;;;;4166967;28;20102;-51
2021/12/09 04:39:04;;;;;;;1.13;0.65;;;25.70;65.00;;;;;;4163874;28;20052;-45
2021/12/09 04:41:06;;;;;;;2.38;1.00;;;25.70;64.80;;;;;;4163405;28;20052;-52
2021/12/09 04:43:08;;;;;;;1.35;0.73;;;25.80;64.90;;;;;;4163822;28;20044;-53
2021/12/09 04:45:11;;;;;;;1.35;0.77;;;25.80;64.60;;;;;;4165606;28;20380;-50
2021/12/09 04:47:13;;;;;;;1.90;0.90;;;25.90;64.60;;;;;;4164334;28;20071;-48
2021/12/09 04:49:15;;;;;;;1.50;0.70;;;25.90;64.60;;;;;;4162172;28;20048;-47
2021/12/09 04:51:17;;;;;;;0.98;0.80;;;25.90;64.50;;;;;;4165655;28;20136;-49
2021/12/09 04:53:20;;;;;;;1.38;0.85;;;26.00;64.50;;;;;;4161130;28;20055;-49
2021/12/09 04:55:22;;;;;;;1.93;0.90;;;26.00;64.50;;;;;;4148983;28;20070;-49
2021/12/09 04:57:24;;;;;;;1.73;0.80;;;26.00;64.50;;;;;;4143831;28;20270;-47
2021/12/09 04:59:26;;;;;;;2.17;1.30;;;26.10;64.30;;;;;;4148886;28;20172;-50
2021/12/09 05:01:28;;;;;;;1.20;0.90;;;26.10;64.30;;;;;;4147582;28;20056;-50
2021/12/09 05:03:31;;;;;;;2.37;0.80;;;26.10;64.20;;;;;;4147881;28;20056;-48
2021/12/09 05:05:37;;;;;;;1.90;0.83;;;26.10;64.10;;;;;;4148585;28;20531;-51
2021/12/09 05:07:39;;;;;;;1.73;0.88;;;26.10;64.20;;;;;;4149987;28;20225;-51
2021/12/09 05:09:50;;;;;;;2.88;0.88;;;26.20;64.30;;;;;;4145529;28;20080;-53
2021/12/09 05:11:53;;;;;;;1.30;0.85;;;26.20;64.30;;;;;;4147138;28;20689;-53
2021/12/09 05:13:56;;;;;;;1.10;0.77;;;26.20;64.10;;;;;;4136170;28;20134;-45
2021/12/09 05:15:58;;;;;;;;;;;26.30;64.00;;;;;;4136493;28;20060;-49
2021/12/09 05:18:00;;;;;;;4.85;0.80;;;26.30;64.00;;;;;;4135703;28;20026;-49
2021/12/09 05:20:04;;;;;;;4.50;1.23;;;26.20;63.90;;;;;;4138221;28;20563;-50
2021/12/09 05:22:06;;;;;;;1.38;0.90;;;26.30;64.00;;;;;;4136762;28;20128;-48
2021/12/09 05:24:11;;;;;;;2.37;1.07;;;26.20;63.90;;;;;;4119661;28;22234;-50
2021/12/09 05:26:14;;;;;;;2.80;0.80;;;26.20;64.00;;;;;;4134824;28;20057;-50
2021/12/09 05:28:18;;;;;;;3.03;1.00;;;26.20;63.90;;;;;;4136126;28;20701;-50
2021/12/09 05:30:24;;;;;;;1.77;0.68;;;26.20;64.00;;;;;;4136129;28;20692;-51
2021/12/09 05:32:26;;;;;;;2.13;0.88;;;26.20;64.10;;;;;;4135854;28;20801;-49
2021/12/09 05:34:29;;;;;;;2.00;0.98;;;26.20;64.00;;;;;;4137620;28;20049;-44
2021/12/09 05:36:31;;;;;;;;;;;26.20;64.20;;;;;;4137001;28;20053;-48
2021/12/09 05:38:33;;;;;;;3.80;1.00;;;26.20;64.30;;;;;;4137948;28;20389;-50
2021/12/09 05:40:35;;;;;;;1.98;0.95;;;26.20;64.20;;;;;;4135866;28;20702;-46
2021/12/09 05:42:37;;;;;;;1.58;0.90;;;26.20;64.20;;;;;;4138228;28;20045;-48
2021/12/09 05:44:40;;;;;;;4.47;0.90;;;26.20;64.10;;;;;;4136472;28;20791;-51
2021/12/09 05:46:44;;;;;;;;;;;26.10;64.10;;;;;;4139687;28;20107;-46
2021/12/09 05:48:46;;;;;;;2.17;0.95;;;26.10;64.10;;;;;;4137556;28;19925;-54
2021/12/09 05:50:49;;;;;;;2.28;0.73;;;26.10;64.00;;;;;;4136787;28;20089;-48
2021/12/09 05:52:51;;;;;;;1.75;0.98;;;26.10;64.00;;;;;;4134341;28;20106;-51
2021/12/09 05:54:53;;;;;;;0.60;0.60;;;26.10;64.00;;;;;;4136066;28;20076;-50
2021/12/09 05:56:55;;;;;;;1.17;0.82;;;26.10;64.00;;;;;;4136337;28;20052;-49
2021/12/09 05:58:58;;;;;;;0.70;0.50;;;26.10;64.00;;;;;;4118405;28;20178;-50
2021/12/09 06:01:03;;;;;;;4.63;0.88;;;26.10;64.00;;;;;;4135343;28;20064;-49
2021/12/09 06:03:06;;;;;;;0.98;0.75;;;26.10;64.00;;;;;;4135436;28;20053;-49
2021/12/09 06:05:08;;;;;;;0.52;0.50;;;26.10;64.00;;;;;;4135521;28;20236;-45
2021/12/09 06:07:11;;;;;;;3.93;0.70;;;26.10;64.00;;;;;;4134988;28;20052;-46
2021/12/09 06:09:13;;;;;;;1.75;0.68;;;26.10;63.90;;;;;;4136276;28;20052;-48
2021/12/09 06:11:15;;;;;;;1.40;0.60;;;26.10;64.00;;;;;;4134078;28;20045;-50
2021/12/09 06:13:17;;;;;;;1.38;0.60;;;26.10;63.90;;;;;;4137366;28;20052;-48
2021/12/09 06:15:20;;;;;;;1.77;0.80;;;26.10;63.90;;;;;;4133270;28;20603;-48
2021/12/09 06:17:22;;;;;;;1.60;0.77;;;26.10;63.80;;;;;;4138733;28;20094;-53
2021/12/09 06:19:24;;;;;;;0.77;0.53;;;26.10;63.90;;;;;;4136716;28;20053;-47
2021/12/09 06:21:27;;;;;;;3.22;1.15;;;26.20;63.90;;;;;;4140085;28;20049;-52
2021/12/09 06:23:29;;;;;;;1.10;0.70;;;26.20;63.90;;;;;;4135620;28;20053;-47
2021/12/09 06:25:31;;;;;;;2.28;0.75;;;26.10;63.90;;;;;;4139466;28;20663;-52
2021/12/09 06:27:33;;;;;;;1.20;0.80;;;26.20;63.90;;;;;;4136042;28;20626;-53
2021/12/09 06:29:36;;;;;;;2.95;0.77;;;26.20;63.70;;;;;;4137449;28;20052;-50
2021/12/09 06:31:38;;;;;;;0.95;0.68;;;26.20;63.70;;;;;;4136440;28;20832;-51
2021/12/09 06:33:43;;;;;;;1.33;0.82;;;26.20;63.80;;;;;;4137460;28;20091;-47
2021/12/09 06:35:45;;;;;;;3.78;1.30;;;26.30;63.40;;;;;;4137143;28;20781;-50
2021/12/09 06:37:48;;;;;;;1.23;0.80;;;26.20;63.00;;;;;;4135987;28;21798;-49
2021/12/09 06:39:50;;;;;;;1.20;0.70;;;26.20;63.10;;;;;;4138082;28;20049;-47
2021/12/09 06:41:52;;;;;;;3.78;1.00;;;26.20;63.30;;;;;;4139541;28;20057;-50
2021/12/09 06:43:56;;;;;;;1.60;0.95;;;26.20;63.40;;;;;;4125247;28;20046;-48
2021/12/09 06:45:58;;;;;;;;;;;26.20;63.50;;;;;;4140301;28;20076;-54
2021/12/09 06:48:00;;;;;;;3.58;0.82;;;26.20;63.50;;;;;;4141492;28;19928;-53
2021/12/09 06:50:04;;;;;;;2.15;0.98;;;26.20;63.50;;;;;;4140142;28;20045;-52
2021/12/09 06:52:06;;;;;;;1.77;0.93;;;26.20;63.50;;;;;;4137230;28;20169;-52
2021/12/09 06:54:09;;;;;;;3.28;0.90;;;26.20;63.60;;;;;;4138424;28;20110;-47
2021/12/09 06:56:11;;;;;;;2.07;0.90;;;26.20;63.70;;;;;;4130264;28;21021;-50
2021/12/09 06:58:14;;;;;;;2.22;1.17;;;26.10;63.80;;;;;;4134288;28;20059;-52
2021/12/09 07:02:12;;;;;;;3.80;1.00;;;26.10;63.30;;;;;;4174431;27;20437;-51
2021/12/09 07:04:14;;;;;;;0.93;0.70;;;26.10;63.90;;;;;;4174263;28;20707;-46
2021/12/09 07:06:17;;;;;;;1.45;0.93;;;26.10;63.90;;;;;;4170948;28;20355;-52
2021/12/09 07:08:20;;;;;;;1.17;0.60;;;26.10;63.90;;;;;;4172835;28;20052;-47
2021/12/09 07:10:23;;;;;;;0.57;0.50;;;26.10;64.00;;;;;;4172353;28;20689;-46
2021/12/09 07:12:25;;;;;;;1.73;0.90;;;26.10;64.00;;;;;;4174550;28;20083;-46
2021/12/09 07:14:28;;;;;;;2.60;1.23;;;26.10;64.00;;;;;;4170742;28;20056;-47
2021/12/09 07:16:31;;;;;;;2.37;1.03;;;26.10;64.10;;;;;;4168888;28;20067;-49
2021/12/09 07:18:36;;;;;;;6.50;1.40;;;26.10;64.10;;;;;;4169795;28;20144;-46
2021/12/09 07:20:39;;;;;;;2.78;1.52;;;26.10;64.20;;;;;;4169110;28;20538;-51
2021/12/09 07:22:41;;;;;;;1.98;1.15;;;26.10;64.30;;;;;;4170193;28;20047;-49
2021/12/09 07:24:45;;;;;;;3.47;1.30;;;26.10;64.20;;;;;;4169359;28;20125;-51
2021/12/09 07:26:47;;;;;;;6.47;1.70;;;26.10;64.20;;;;;;4166385;28;20117;-48
2021/12/09 07:28:49;;;;;;;3.90;1.50;;;26.10;64.20;;;;;;4165695;28;20044;-49
2021/12/09 07:30:52;;;;;;;3.63;1.30;;;26.10;64.20;;;;;;4165085;28;20058;-51
2021/12/09 07:32:54;;;;;;;2.50;1.25;;;26.10;64.30;;;;;;4169520;28;20756;-50
2021/12/09 07:34:56;;;;;;;5.93;1.77;;;26.10;64.30;;;;;;4167586;28;20089;-48
2021/12/09 07:37:03;;;;;;;2.80;0.95;;;26.10;64.40;;;;;;4168169;28;20162;-45
2021/12/09 07:39:06;;;;;;;1.88;0.80;;;26.10;64.50;;;;;;4168114;28;20121;-49
2021/12/09 07:41:08;;;;;;;3.20;1.00;;;26.10;64.50;;;;;;4166624;28;20450;-49
2021/12/09 07:43:10;;;;;;;3.15;0.90;;;26.10;64.60;;;;;;4169694;28;20904;-50
2021/12/09 07:45:14;;;;;;;3.20;1.23;;;26.00;64.60;;;;;;4168581;28;20605;-49
2021/12/09 07:47:17;;;;;;;1.80;1.00;;;26.00;64.50;;;;;;4167136;28;21250;-48
2021/12/09 07:49:20;;;;;;;2.25;0.80;;;26.00;64.50;;;;;;4168000;28;20052;-50
2021/12/09 07:51:22;;;;;;;1.20;0.90;;;26.00;64.50;;;;;;4171113;28;20714;-50
2021/12/09 07:53:25;;;;;;;4.47;1.00;;;26.00;64.70;;;;;;4167903;28;20054;-46
2021/12/09 07:55:28;;;;;;;2.78;0.95;;;26.00;64.70;;;;;;4175831;28;20381;-46
2021/12/09 07:57:33;;;;;;;1.35;0.77;;;25.90;64.70;;;;;;4175449;28;20081;-46
2021/12/09 07:59:35;;;;;;;1.17;0.70;;;26.00;64.70;;;;;;4174217;28;20852;-50
2021/12/09 08:01:41;;;;;;;1.55;0.80;;;25.90;64.70;;;;;;4171994;28;20047;-47
2021/12/09 08:03:44;;;;;;;1.95;0.77;;;26.00;64.70;;;;;;4174767;28;20047;-47
2021/12/09 08:05:48;;;;;;;4.65;1.35;;;25.90;64.70;;;;;;4176616;28;20684;-49
2021/12/09 08:07:51;;;;;;;3.97;1.30;;;25.90;64.90;;;;;;4177388;28;20183;-50
2021/12/09 08:09:53;;;;;;;3.83;1.95;;;25.90;63.40;;;;;;4177495;28;20106;-47
2021/12/09 08:11:55;;;;;;;3.53;1.70;;;25.90;63.00;;;;;;4175866;28;20056;-52
2021/12/09 08:13:57;;;;;;;4.33;2.00;;;25.80;62.90;;;;;;4165179;28;20045;-47
2021/12/09 08:16:00;;;;;;;3.47;1.73;;;25.80;63.00;;;;;;4165618;28;20052;-48
2021/12/09 08:18:25;;;;;;;4.22;1.70;;;25.70;63.00;;;;;;4166083;28;20098;-53
2021/12/09 08:20:28;;;;;;;4.05;1.90;;;25.70;63.20;;;;;;4166906;28;20048;-47
2021/12/09 08:22:30;;;;;;;5.15;1.63;;;25.70;63.40;;;;;;4160290;28;20078;-46
2021/12/09 08:24:33;;;;;;;3.50;1.90;;;25.70;63.50;;;;;;4156972;28;20527;-47
2021/12/09 08:26:36;;;;;;;4.10;1.50;;;25.70;63.90;;;;;;4157601;28;20044;-53
2021/12/09 08:28:40;;;;;;;3.50;1.20;;;25.70;64.20;;;;;;4164767;28;20062;-49
2021/12/09 08:30:43;;;;;;;3.13;1.25;;;25.70;64.30;;;;;;4159264;28;20063;-50
2021/12/09 08:32:45;;;;;;;4.68;1.40;;;25.70;64.40;;;;;;4162944;28;20049;-48
2021/12/09 08:34:47;;;;;;;4.25;1.30;;;25.70;64.40;;;;;;4162563;28;20048;-52
2021/12/09 08:36:50;;;;;;;2.90;1.25;;;25.70;64.50;;;;;;4163368;28;20824;-46
2021/12/09 08:38:52;;;;;;;2.20;1.00;;;25.70;64.60;;;;;;4159437;28;20048;-53
2021/12/09 08:40:55;;;;;;;4.40;1.23;;;25.70;64.70;;;;;;4163020;28;20059;-53
2021/12/09 08:42:58;;;;;;;1.85;0.98;;;25.70;64.80;;;;;;4162214;28;20355;-53
2021/12/09 08:45:00;;;;;;;1.33;0.90;;;25.70;64.80;;;;;;4162925;28;20048;-52
2021/12/09 08:47:04;;;;;;;2.67;1.00;;;25.70;64.80;;;;;;4158900;28;20052;-52
2021/12/09 08:49:08;;;;;;;;;;;25.70;64.90;;;;;;4163032;28;20052;-52
2021/12/09 08:51:10;;;;;;;;;;;25.70;64.80;;;;;;4163043;28;20014;-46
2021/12/09 08:53:16;;;;;;;0.65;0.57;;;25.70;64.90;;;;;;4136505;28;20890;-50
2021/12/09 08:55:22;;;;;;;1.15;0.90;;;25.70;64.90;;;;;;4160457;28;20044;-50
2021/12/09 08:57:27;;;;;;;1.70;0.50;;;25.70;65.00;;;;;;4161977;28;20183;-53
2021/12/09 08:59:30;;;;;;;1.88;0.60;;;25.80;65.10;;;;;;4159445;28;20049;-52
2021/12/09 09:01:35;;;;;;;1.25;0.88;;;25.80;65.10;;;;;;4145932;28;20976;-51
2021/12/09 09:03:39;;;;;;;2.30;1.00;;;25.80;65.10;;;;;;4140797;28;20223;-54
2021/12/09 09:05:42;;;;;;;1.05;0.70;;;25.80;65.10;;;;;;4160955;28;20048;-49
2021/12/09 09:07:47;;;;;;;1.88;0.93;;;25.80;65.20;;;;;;4159783;28;20048;-50
2021/12/09 09:09:50;;;;;;;1.80;0.80;;;25.80;65.20;;;;;;4159698;28;20056;-51
2021/12/09 09:11:53;;;;;;;1.38;0.73;;;25.70;65.00;;;;;;4163124;28;20575;-53
2021/12/09 09:13:55;;;;;;;4.45;0.70;;;25.80;65.10;;;;;;4163510;28;20048;-48
2021/12/09 09:15:57;;;;;;;2.35;1.00;;;25.80;65.10;;;;;;4152507;28;20071;-55
2021/12/09 09:18:01;;;;;;;2.53;0.90;;;25.80;65.10;;;;;;4164574;28;20052;-50
2021/12/09 09:20:09;;;;;;;1.45;0.70;;;25.80;65.20;;;;;;4165524;28;20053;-48
2021/12/09 09:22:13;;;;;;;2.97;0.85;;;25.80;65.20;;;;;;4150075;28;20093;-50
2021/12/09 09:24:16;;;;;;;1.50;0.75;;;25.80;65.20;;;;;;4161990;28;20108;-47
2021/12/09 09:26:18;;;;;;;1.63;0.63;;;25.80;65.20;;;;;;4165168;28;20059;-46
2021/12/09 09:28:20;;;;;;;1.70;0.70;;;25.80;65.20;;;;;;4165347;28;20076;-51
2021/12/09 09:30:23;;;;;;;1.67;0.70;;;25.80;65.20;;;;;;4164737;28;21099;-51
2021/12/09 09:32:25;;;;;;;1.13;0.80;;;25.80;65.20;;;;;;4156724;28;20052;-50
2021/12/09 09:34:28;;;;;;;0.67;0.50;;;25.80;65.30;;;;;;4152634;28;20130;-52
2021/12/09 09:36:33;;;;;;;4.80;1.37;;;25.70;65.30;;;;;;4165751;28;20176;-50
2021/12/09 09:38:35;;;;;;;3.08;0.80;;;25.80;65.20;;;;;;4149169;28;20301;-51
2021/12/09 09:40:49;;;;;;;3.63;1.10;;;25.80;65.20;;;;;;4148004;28;20048;-50
2021/12/09 09:43:01;;;;;;;3.92;1.13;;;25.80;65.30;;;;;;4166049;28;20592;-47
2021/12/09 09:45:05;;;;;;;3.35;1.00;;;25.80;65.50;;;;;;4151059;28;20063;-53
2021/12/09 09:47:07;;;;;;;1.17;0.70;;;25.80;65.50;;;;;;4167088;28;20511;-50
2021/12/09 09:49:11;;;;;;;3.22;0.80;;;25.80;65.50;;;;;;4167647;28;20531;-54
2021/12/09 09:51:13;;;;;;;2.00;0.80;;;25.70;65.50;;;;;;4149471;28;20575;-50
2021/12/09 09:53:18;;;;;;;4.68;0.98;;;25.80;65.60;;;;;;4163836;28;20162;-52
2021/12/09 09:55:21;;;;;;;1.83;1.00;;;25.80;65.50;;;;;;4152007;28;20139;-55
2021/12/09 09:57:27;;;;;;;2.20;1.08;;;25.80;65.30;;;;;;4153579;28;20491;-50
2021/12/09 09:59:30;;;;;;;4.40;1.10;;;25.80;65.20;;;;;;4157031;28;20047;-57
2021/12/09 10:01:35;;;;;;;2.47;1.00;;;25.80;65.10;;;;;;4164532;28;20115;-58
2021/12/09 10:03:45;;;;;;;3.55;1.23;;;25.70;64.70;;;;;;4149341;28;20121;-58
2021/12/09 10:05:49;;;;;;;3.85;1.58;;;25.80;64.60;;;;;;4163896;28;20063;-56
2021/12/09 10:07:52;;;;;;;4.00;1.50;;;25.70;64.30;;;;;;4144881;28;20114;-56
2021/12/09 10:09:55;;;;;;;3.40;1.60;;;25.70;64.20;;;;;;4149896;28;20052;-56
2021/12/09 10:11:57;;;;;;;4.97;1.52;;;25.70;64.10;;;;;;4164273;28;20072;-57
2021/12/09 10:14:16;;;;;;;3.33;1.47;;;25.70;64.10;;;;;;4165197;28;20062;-57
2021/12/09 10:16:27;;;;;;;1.80;0.90;;;25.70;64.20;;;;;;4163884;28;20920;-57
2021/12/09 10:18:39;;;;;;;6.03;1.67;;;25.60;64.80;;;;;;4166860;28;20080;-55
2021/12/09 10:20:54;;;;;;;1.75;1.08;;;25.70;66.00;;;;;;4164773;28;20052;-57
2021/12/09 10:22:56;;;;;;;2.17;1.30;;;25.70;65.40;;;;;;4150685;28;20059;-55
2021/12/09 10:24:59;;;;;;;2.95;1.42;;;25.70;65.60;;;;;;4164015;28;20048;-56
2021/12/09 10:27:02;;;;;;;1.88;0.88;;;25.70;65.70;;;;;;4163827;28;20552;-57
2021/12/09 10:29:30;;;;;;;1.95;0.90;;;25.70;65.80;;;;;;4161804;28;21326;-57
2021/12/09 10:31:43;;;;;;;1.05;0.70;;;25.70;65.90;;;;;;4165291;28;20074;-58
2021/12/09 10:34:27;;;;;;;1.33;0.90;;;25.70;65.90;;;;;;4166015;28;20139;-56
2021/12/09 10:36:48;;;;;;;1.27;0.60;;;25.70;65.90;;;;;;4166847;28;20503;-57
2021/12/09 10:38:50;;;;;;;1.08;0.80;;;25.70;65.80;;;;;;4169055;28;20141;-51
2021/12/09 10:40:52;;;;;;;1.65;0.80;;;25.70;65.80;;;;;;4164505;28;20063;-55
2021/12/09 10:43:06;;;;;;;1.63;0.88;;;25.70;65.80;;;;;;4167891;28;20047;-54
2021/12/09 10:45:28;;;;;;;0.98;0.70;;;25.70;65.80;;;;;;4168799;28;20862;-55
2021/12/09 10:51:12;;;;;;;1.35;0.80;;;25.70;65.80;;;;;;4168957;28;20058;-55
2021/12/09 10:52:40;;;;;;;1.65;0.90;;;25.70;65.80;;;;;;4160554;28;20071;-55
2021/12/09 10:54:42;;;;;;;;;;;25.70;65.80;;;;;;4170884;28;20044;-58